^^
Soleil Laural Canyon Historical Data
 
Daily Summary for December 11, 2019 Units:  English    Metric   Both
Daily Weekly Monthly Yearly Custom

Warning: A non-numeric value encountered in /homepages/45/d241404124/htdocs/soleilweather/WU-History-inc.php on line 1130

Warning: A non-numeric value encountered in /homepages/45/d241404124/htdocs/soleilweather/WU-History-inc.php on line 1130
  Current: High: Low: Average:
Temperature: 39.4 °F 69.6 °F 30.9 °F 38.3 °F
Dew Point: 25 °F 33.4 °F 0.00 °F 26.8 °F
Humidity: 56% 96% % 68%
Wind Speed: 1.8mph 8.9mph 0mph 2.3mph
Wind Gust: 2.2mph 11.4mph - -
WindWNW - - South
Pressure: 30.53 in 30.53 in 30.29 in -
Precipitation: 0.23 in      
Historical Graphs
 
 
Tabular Data for December 11, 2019
Time Temperature Dew Point Pressure Wind Wind Speed Wind Gust Humidity Rainfall Rate (Hourly) solar
00:00 34.5 °F 32.7 °F 30.30 in South 1.1 mph 1.1 mph 94% 0 in 0.00 W/m2
00:05 34.7 °F 32.9 °F 30.30 in Calm     94% 0 in 0.00 W/m2
00:10 34.7 °F 32.9 °F 30.29 in SE 0.2 mph 1.1 mph 94% 0 in 0.00 W/m2
00:16 34.7 °F 32.9 °F 30.30 in SE 0.9 mph 2.2 mph 94% 0 in 0.00 W/m2
00:21 34.7 °F 32.9 °F 30.30 in ESE 2 mph 3.4 mph 94% 0 in 0.00 W/m2
00:26 34.7 °F 32.9 °F 30.31 in ESE 0.4 mph 1.1 mph 94% 0 in 0.00 W/m2
00:32 34.7 °F 32.9 °F 30.31 in SE 3.1 mph 3.4 mph 94% 0 in 0.00 W/m2
00:35 34.7 °F 32.9 °F 30.30 in SSE 1.3 mph 2.2 mph 94% 0 in 0.00 W/m2
00:42 34.7 °F 32.9 °F 30.29 in SE 1.8 mph 2.2 mph 94% 0 in 0.00 W/m2
00:45 34.7 °F 32.9 °F 30.30 in South 1.8 mph 3.4 mph 94% 0 in 0.00 W/m2
00:51 34.9 °F 33.1 °F 30.30 in SSE 1.8 mph 2.2 mph 94% 0 in 0.00 W/m2
00:55 34.7 °F 32.9 °F 30.30 in South 1.3 mph 2.2 mph 94% 0 in 0.00 W/m2
01:00 34.7 °F 33.4 °F 30.31 in East 1.1 mph 2.2 mph 95% 0 in 0.00 W/m2
01:05 34.5 °F 33.3 °F 30.30 in ESE 1.1 mph 2.2 mph 95% 0 in 0.00 W/m2
01:10 34.5 °F 33.3 °F 30.30 in SSE 0.9 mph 1.1 mph 95% 0 in 0.00 W/m2
01:16 34.5 °F 33.3 °F 30.30 in SSE 0.9 mph 2.2 mph 95% 0 in 0.00 W/m2
01:21 34.3 °F 33.1 °F 30.30 in ESE 2.5 mph 3.4 mph 95% 0 in 0.00 W/m2
01:25 34.3 °F 33.1 °F 30.30 in SSE 4.5 mph 6.9 mph 95% 0 in 0.00 W/m2
01:30 34.2 °F 32.9 °F 30.31 in SSE 1.8 mph 3.4 mph 95% 0 in 0.00 W/m2
01:35 34.2 °F 32.9 °F 30.30 in SSE 0.7 mph 1.1 mph 95% 0 in 0.00 W/m2
01:40 34 °F 32.7 °F 30.30 in ESE 1.3 mph 2.2 mph 95% 0 in 0.00 W/m2
01:49 34 °F 32.7 °F 30.30 in South 1.8 mph 3.4 mph 95% 0 in 0.00 W/m2
01:50 34 °F 32.7 °F 30.30 in South 1.1 mph 1.1 mph 95% 0 in 0.00 W/m2
01:55 34.2 °F 33.3 °F 30.30 in SSE 0.7 mph 2.2 mph 96% 0 in 0.00 W/m2
02:00 34 °F 33.1 °F 30.30 in SSE 0.2 mph 1.1 mph 96% 0 in 0.00 W/m2
02:05 34.2 °F 33.3 °F 30.32 in SE 0.2 mph 1.1 mph 96% 0 in 0.00 W/m2
02:10 34.2 °F 33.3 °F 30.33 in SSW 1.6 mph 2.2 mph 96% 0 in 0.00 W/m2
02:15 34 °F 32.7 °F 30.33 in SSE 4 mph 5.8 mph 95% 0 in 0.00 W/m2
02:20 34 °F 32.7 °F 30.33 in ESE 2.5 mph 5.8 mph 95% 0 in 0.00 W/m2
02:25 34 °F 32.7 °F 30.33 in SSE 3.4 mph 4.5 mph 95% 0 in 0.00 W/m2
02:30 34 °F 32.7 °F 30.34 in South 1.8 mph 5.8 mph 95% 0 in 0.00 W/m2
02:35 33.8 °F 32.5 °F 30.34 in SE 2.2 mph 3.4 mph 95% 0 in 0.00 W/m2
02:40 33.8 °F 32.5 °F 30.33 in East 1.8 mph 4.5 mph 95% 0 in 0.00 W/m2
02:45 33.6 °F 32.4 °F 30.34 in SSE 4.7 mph 6.9 mph 95% 0 in 0.00 W/m2
02:50 33.4 °F 32.2 °F 30.33 in SSE 2 mph 4.5 mph 95% 0 in 0.00 W/m2
02:55 33.6 °F 32.4 °F 30.34 in South 2.9 mph 3.4 mph 95% 0 in 0.00 W/m2
03:00 33.6 °F 32.4 °F 30.34 in SSW 1.8 mph 4.5 mph 95% 0 in 0.00 W/m2
03:05 33.6 °F 32.4 °F 30.34 in South 2.9 mph 4.5 mph 95% 0 in 0.00 W/m2
03:10 33.6 °F 32.4 °F 30.35 in SSE 0.2 mph 1.1 mph 95% 0 in 0.00 W/m2
03:15 33.8 °F 32.5 °F 30.34 in SSE 1.3 mph 2.2 mph 95% 0 in 0.00 W/m2
03:20 33.6 °F 32.4 °F 30.35 in South 4 mph 4.5 mph 95% 0 in 0.00 W/m2
03:26 33.6 °F 32.4 °F 30.36 in ESE 0.9 mph 1.1 mph 95% 0 in 0.00 W/m2
03:30 33.8 °F 32.5 °F 30.37 in Calm     95% 0 in 0.00 W/m2
03:35 33.8 °F 32.5 °F 30.35 in South 1.1 mph 2.2 mph 95% 0 in 0.00 W/m2
03:40 33.6 °F 32.4 °F 30.36 in East 0.2 mph 1.1 mph 95% 0 in 0.00 W/m2
03:45 33.8 °F 32.5 °F 30.36 in ESE 3.8 mph 4.5 mph 95% 0 in 0.00 W/m2
03:51 33.6 °F 32.4 °F 30.37 in South 1.1 mph 1.1 mph 95% 0 in 0.00 W/m2
03:55 33.6 °F 32.4 °F 30.36 in South 2.5 mph 3.4 mph 95% 0 in 0.00 W/m2
04:00 33.8 °F 32.5 °F 30.36 in East 0.7 mph 1.1 mph 95% 0 in 0.00 W/m2
04:05 33.6 °F 32.4 °F 30.35 in South 0.7 mph 1.1 mph 95% 0 in 0.00 W/m2
04:10 33.8 °F 32.5 °F 30.35 in South 0.9 mph 1.1 mph 95% 0 in 0.00 W/m2
04:15 33.6 °F 32.4 °F 30.36 in South 1.8 mph 2.2 mph 95% 0 in 0.00 W/m2
04:20 33.6 °F 32.4 °F 30.36 in NE 1.6 mph 2.2 mph 95% 0 in 0.00 W/m2
04:25 33.6 °F 32.4 °F 30.36 in WSW 0.2 mph 1.1 mph 95% 0 in 0.00 W/m2
04:30 33.6 °F 31.8 °F 30.37 in SE 1.6 mph 2.2 mph 94% 0 in 0.00 W/m2
04:36 33.4 °F 31.6 °F 30.37 in SSE 2.7 mph 3.4 mph 94% 0 in 0.00 W/m2
04:42 33.4 °F 31.6 °F 30.36 in SE 4 mph 5.8 mph 94% 0 in 0.00 W/m2
04:46 33.4 °F 31.6 °F 30.37 in South 1.6 mph 2.2 mph 94% 0 in 0.00 W/m2
04:50 33.4 °F 31.6 °F 30.37 in South 1.6 mph 2.2 mph 94% 0 in 0.00 W/m2
04:55 33.3 °F 31.3 °F 30.38 in South 2.5 mph 3.4 mph 93% 0 in 0.00 W/m2
05:01 33.3 °F 31.3 °F 30.38 in SSE 2.9 mph 5.8 mph 93% 0 in 0.00 W/m2
05:05 33.3 °F 31.3 °F 30.37 in SSE 2.9 mph 5.8 mph 93% 0 in 0.00 W/m2
05:10 33.1 °F 31.1 °F 30.37 in SSE 2.5 mph 3.4 mph 93% 0 in 0.00 W/m2
05:16 33.1 °F 31.1 °F 30.38 in SSE 2.5 mph 5.8 mph 93% 0 in 0.00 W/m2
05:20 33.1 °F 31.1 °F 30.37 in South 0.2 mph 1.1 mph 93% 0 in 0.00 W/m2
05:25 32.9 °F 30.9 °F 30.38 in SE 3.8 mph 4.5 mph 93% 0 in 0.00 W/m2
05:30 32.9 °F 30.9 °F 30.37 in SSE 5.4 mph 6.9 mph 93% 0 in 0.00 W/m2
05:35 32.9 °F 30.9 °F 30.38 in South 1.3 mph 2.2 mph 93% 0 in 0.00 W/m2
05:40 32.7 °F 30.7 °F 30.38 in SE 1.3 mph 2.2 mph 93% 0 in 0.00 W/m2
05:45 32.7 °F 30.7 °F 30.38 in SSE 3.8 mph 4.5 mph 93% 0 in 0.00 W/m2
05:50 32.7 °F 30.7 °F 30.38 in SSE 3.8 mph 4.5 mph 93% 0 in 0.00 W/m2
05:55 32.5 °F 30.6 °F 30.38 in SSE 1.3 mph 2.2 mph 93% 0 in 0.00 W/m2
06:00 32.5 °F 30.6 °F 30.38 in SSE 1.3 mph 2.2 mph 93% 0 in 0.00 W/m2
06:05 32.5 °F 30.6 °F 30.38 in East 2.7 mph 4.5 mph 93% 0 in 0.00 W/m2
06:10 32.2 °F 30.2 °F 30.38 in SSE 0.4 mph 1.1 mph 93% 0 in 0.00 W/m2
06:15 32.2 °F 30.2 °F 30.38 in South 1.3 mph 2.2 mph 93% 0 in 0.00 W/m2
06:20 32 °F 30 °F 30.38 in SE 3.4 mph 4.5 mph 93% 0 in 0.00 W/m2
06:25 32 °F 30 °F 30.38 in SE 3.4 mph 4.5 mph 93% 0 in 0.00 W/m2
06:30 32 °F 30 °F 30.37 in SE 3.4 mph 4.5 mph 93% 0 in 0.00 W/m2
06:35 32 °F 30 °F 30.38 in SE 3.4 mph 4.5 mph 93% 0 in 0.00 W/m2
06:40 31.5 °F 29.5 °F 30.38 in SE 1.6 mph 2.2 mph 93% 0 in 0.00 W/m2
06:45 31.3 °F 29.3 °F 30.38 in SE 0.7 mph 2.2 mph 93% 0 in 0.00 W/m2
06:50 31.3 °F 29.3 °F 30.39 in SE 0.7 mph 2.2 mph 93% 0 in 0.00 W/m2
06:55 31.3 °F 29.3 °F 30.39 in SE 0.7 mph 2.2 mph 93% 0 in 0.00 W/m2
07:00 31.3 °F 29.3 °F 30.39 in SE 0.7 mph 2.2 mph 93% 0 in 0.00 W/m2
07:05 30.9 °F 28.9 °F 30.39 in SE 0.2 mph 1.1 mph 93% 0 in 0.00 W/m2
07:11 30.9 °F 28.9 °F 30.39 in SSE 2.9 mph 3.4 mph 93% 0 in 0.00 W/m2
07:15 30.9 °F 28.9 °F 30.39 in SSE 2.9 mph 3.4 mph 93% 0 in 0.00 W/m2
07:20 30.9 °F 28.9 °F 30.40 in SSE 2.9 mph 3.4 mph 93% 0 in 0.00 W/m2
07:25 30.9 °F 28.9 °F 30.39 in SSE 2.9 mph 3.4 mph 93% 0 in 0.00 W/m2
07:30 30.9 °F 28.9 °F 30.40 in SSE 2.9 mph 3.4 mph 93% 0 in 0.00 W/m2
07:35 30.9 °F 28.9 °F 30.40 in SSE 2.9 mph 3.4 mph 93% 0 in 0.00 W/m2
07:40 30.9 °F 28.9 °F 30.40 in SSE 2.9 mph 3.4 mph 93% 0 in 0.00 W/m2
07:45 30.9 °F 28.9 °F 30.40 in SSE 2.9 mph 3.4 mph 93% 0 in 0.00 W/m2
07:50 30.9 °F 28.9 °F 30.40 in SSE 2.9 mph 3.4 mph 93% 0 in 0.00 W/m2
07:55 30.9 °F 28.9 °F 30.42 in SSE 2.9 mph 3.4 mph 93% 0 in 0.00 W/m2
08:00 30.9 °F 28.9 °F 30.41 in SSE 2.9 mph 3.4 mph 93% 0 in 0.00 W/m2
08:05 30.9 °F 28.9 °F 30.41 in SSE 2.9 mph 3.4 mph 93% 0 in 0.00 W/m2
08:10 69.6 °F 0.00 °F 30.42 in Calm   -999 mph % 0 in W/m2
08:15 69.6 °F 0.00 °F 30.42 in Calm   -999 mph % 0 in W/m2
08:20 31.5 °F 28.2 °F 30.42 in SSE 5.8 mph 8.1 mph 88% 0 in 52.85 W/m2
08:27 31.6 °F 28.4 °F 30.43 in South 0.7 mph 1.1 mph 88% 0 in 61.17 W/m2
08:30 31.6 °F 28.2 °F 30.42 in SSW 4.5 mph 5.8 mph 87% 0 in 64.96 W/m2
08:35 31.6 °F 28.2 °F 30.43 in SSE 2.7 mph 4.5 mph 87% 0 in 68.51 W/m2
08:40 31.8 °F 28.2 °F 30.43 in East 1.8 mph 3.4 mph 86% 0 in 74.14 W/m2
08:46 32 °F 28.4 °F 30.43 in SE 4.7 mph 6.9 mph 86% 0 in 80.25 W/m2
08:50 32 °F 28.4 °F 30.43 in SSE 5.1 mph 8.1 mph 86% 0 in 76.70 W/m2
08:55 32.2 °F 27.9 °F 30.43 in SE 2.9 mph 4.5 mph 84% 0 in 71.56 W/m2
09:03 32.2 °F 27.3 °F 30.44 in SSE 4.7 mph 6.9 mph 82% 0 in 79.76 W/m2
09:09 32.4 °F 27.7 °F 30.44 in SSE 2 mph 2.2 mph 83% 0 in 78.41 W/m2
09:14 32.5 °F 27.7 °F 30.45 in South 2.9 mph 3.4 mph 82% 0 in 81.48 W/m2
09:19 32.5 °F 27.7 °F 30.45 in SE 2.5 mph 4.5 mph 82% 0 in 86.73 W/m2
09:23 32.7 °F 27.1 °F 30.45 in SSE 5.1 mph 8.1 mph 80% 0 in 94.56 W/m2
09:25 32.7 °F 27.1 °F 30.45 in South 4 mph 5.8 mph 80% 0 in 98.85 W/m2
09:30 32.7 °F 27.1 °F 30.45 in South 6.7 mph 9.2 mph 80% 0 in 105.82 W/m2
09:35 32.9 °F 27.3 °F 30.45 in ESE 3.4 mph 5.8 mph 80% 0 in 100.19 W/m2
09:40 32.9 °F 27.3 °F 30.45 in SSW 2.2 mph 2.2 mph 80% 0 in 105.82 W/m2
09:45 32.9 °F 27.3 °F 30.46 in South 3.8 mph 5.8 mph 80% 0 in 120.50 W/m2
09:50 32.9 °F 27.1 °F 30.46 in SSE 2.2 mph 3.4 mph 79% 0 in 117.93 W/m2
09:55 33.3 °F 27.5 °F 30.46 in SE 3.1 mph 4.5 mph 79% 0 in 127.10 W/m2
10:05 33.6 °F 26.8 °F 30.48 in SSW 6 mph 9.2 mph 76% 0 in 147.90 W/m2
10:10 33.8 °F 27 °F 30.47 in SE 7.4 mph 11.4 mph 76% 0 in 148.76 W/m2
10:15 33.8 °F 27 °F 30.47 in SSE 4 mph 5.8 mph 76% 0 in 160.02 W/m2
10:20 34 °F 27.1 °F 30.47 in South 0.9 mph 2.2 mph 76% 0 in 153.53 W/m2
10:25 34.3 °F 27.1 °F 30.47 in South 4.5 mph 6.9 mph 75% 0 in 139.22 W/m2
10:30 34.3 °F 26.6 °F 30.47 in SE 4.9 mph 6.9 mph 73% 0 in 147.05 W/m2
10:35 34.5 °F 26.4 °F 30.48 in South 1.6 mph 3.4 mph 72% 0 in 182.53 W/m2
10:40 35.1 °F 27 °F 30.48 in SE 1.8 mph 2.2 mph 72% 0 in 164.78 W/m2
10:45 34.9 °F 26.4 °F 30.48 in SSW 6.3 mph 8.1 mph 71% 0 in 160.87 W/m2
10:50 34.9 °F 25.7 °F 30.48 in SSE 4.5 mph 5.8 mph 69% 0 in 151.33 W/m2
10:55 35.1 °F 26.2 °F 30.48 in SSW 3.8 mph 5.8 mph 70% 0 in 138.36 W/m2
11:00 34.9 °F 25.7 °F 30.47 in SSE 5.8 mph 8.1 mph 69% 0 in 117.93 W/m2
11:08 34.9 °F 26.1 °F 30.47 in SSE 2.2 mph 3.4 mph 70% 0 in 101.90 W/m2
11:10 34.9 °F 26.1 °F 30.48 in SSW 1.8 mph 2.2 mph 70% 0 in 132.24 W/m2
11:15 35.1 °F 25.5 °F 30.48 in SSW 2.5 mph 3.4 mph 68% 0 in 337.89 W/m2
11:21 35.1 °F 26.2 °F 30.48 in ESE 1.3 mph 2.2 mph 70% 0 in 79.76 W/m2
11:25 35.1 °F 25.9 °F 30.48 in South 2.7 mph 3.4 mph 69% 0 in 424.26 W/m2
11:30 36 °F 26.4 °F 30.48 in West 2.7 mph 3.4 mph 68% 0 in 181.67 W/m2
11:35 36.7 °F 27.1 °F 30.48 in SW 1.6 mph 4.5 mph 68% 0 in 234.15 W/m2
11:40 37.6 °F 27 °F 30.47 in SE 2.2 mph 3.4 mph 65% 0 in 438.57 W/m2
11:45 39 °F 27.1 °F 30.47 in SSE 6.5 mph 9.2 mph 62% 0 in 336.18 W/m2
11:50 39 °F 27.1 °F 30.48 in SSE 4.5 mph 5.8 mph 62% 0 in 417.28 W/m2
11:55 39.6 °F 27.3 °F 30.47 in SSE 8.1 mph 11.4 mph 61% 0 in 429.40 W/m2
12:00 40.6 °F 27.5 °F 30.48 in ESE 5.4 mph 8.1 mph 59% 0 in 414.23 W/m2
12:05 40.5 °F 27.3 °F 30.47 in South 7.4 mph 8.1 mph 59% 0 in 406.40 W/m2
12:10 41 °F 27.7 °F 30.47 in SE 5.8 mph 6.9 mph 59% 0 in 425.49 W/m2
12:15 42.3 °F 28 °F 30.47 in SSE 3.8 mph 4.5 mph 57% 0 in 434.66 W/m2
12:20 42.8 °F 28.2 °F 30.46 in SSE 5.8 mph 6.9 mph 56% 0 in 448.48 W/m2
12:25 42.3 °F 27.7 °F 30.47 in South 6 mph 8.1 mph 56% 0 in 451.05 W/m2
12:30 43 °F 28.4 °F 30.46 in South 3.4 mph 4.5 mph 56% 0 in 434.17 W/m2
12:35 43.2 °F 28.6 °F 30.47 in South 2.2 mph 3.4 mph 56% 0 in 443.35 W/m2
12:40 43.3 °F 27.3 °F 30.46 in South 4.5 mph 6.9 mph 53% 0 in 434.66 W/m2
12:45 43.9 °F 28.2 °F 30.47 in ESE 2 mph 3.4 mph 54% 0 in 429.40 W/m2
12:50 44.4 °F 28.4 °F 30.47 in East 3.8 mph 5.8 mph 53% 0 in 419.49 W/m2
12:55 44.6 °F 28 °F 30.46 in SE 2.2 mph 2.2 mph 52% 0 in 405.54 W/m2
13:00 44.6 °F 27.7 °F 30.46 in SSE 8.9 mph 11.4 mph 51% 0 in 427.69 W/m2
13:05 44.6 °F 27.7 °F 30.46 in SSW 4.9 mph 10.3 mph 51% 0 in 424.26 W/m2
13:10 45 °F 27.9 °F 30.46 in South 3.8 mph 4.5 mph 51% 0 in 413.74 W/m2
13:15 45.1 °F 28 °F 30.46 in SSE 2.9 mph 4.5 mph 51% 0 in 409.46 W/m2
13:21 45.7 °F 28 °F 30.46 in SSW 3.1 mph 5.8 mph 50% 0 in 334.47 W/m2
13:25 45.7 °F 27.1 °F 30.45 in SSE 3.8 mph 5.8 mph 48% 0.01 in 381.32 W/m2
13:30 45.9 °F 27.9 °F 30.46 in SSE 1.8 mph 3.4 mph 49% 0.01 in 415.57 W/m2
13:35 46.2 °F 28.6 °F 30.45 in NW 1.1 mph 2.2 mph 50% 0.01 in 415.57 W/m2
13:40 46.6 °F 27.3 °F 30.45 in SSE 6.9 mph 8.1 mph 47% 0.01 in 419.00 W/m2
13:45 46.8 °F 28 °F 30.45 in SSE 4.5 mph 8.1 mph 48% 0.01 in 418.15 W/m2
13:50 46.6 °F 27.9 °F 30.45 in NNE 3.1 mph 4.5 mph 48% 0.22 in 17.25 W/m2
13:55 45.9 °F 28.2 °F 30.45 in NNE 0.4 mph 1.1 mph 50% 0.22 in 16.39 W/m2
14:00 45.7 °F 27.7 °F 30.45 in NNE 3.8 mph 4.5 mph 49% 0.22 in 16.88 W/m2
14:05 45.5 °F 27.5 °F 30.45 in SE 3.8 mph 6.9 mph 49% 0.23 in 255.44 W/m2
14:10 46.8 °F 28 °F 30.45 in SSE 2.5 mph 3.4 mph 48% 0.23 in 369.94 W/m2
14:15 47.8 °F 28 °F 30.44 in NNE 1.3 mph 2.2 mph 46% 0.23 in 361.25 W/m2
14:20 48 °F 28.2 °F 30.45 in South 5.4 mph 8.1 mph 46% 0.23 in 373.86 W/m2
14:25 47.3 °F 28 °F 30.45 in South 1.6 mph 3.4 mph 47% 0.22 in 353.06 W/m2
14:30 47.1 °F 27.5 °F 30.45 in South 2.2 mph 3.4 mph 46% 0.22 in 333.12 W/m2
14:35 48.2 °F 27.9 °F 30.44 in SSE 2.9 mph 3.4 mph 45% 0.22 in 321.86 W/m2
14:40 48 °F 27.7 °F 30.44 in WSW 0.9 mph 1.1 mph 45% 0.22 in 348.29 W/m2
14:45 48.4 °F 27.5 °F 30.44 in SSE 3.4 mph 4.5 mph 44% 0.22 in 339.23 W/m2
14:52 48 °F 27.1 °F 30.45 in SSE 1.3 mph 2.2 mph 44% 0.01 in 329.20 W/m2
14:55 47.8 °F 27 °F 30.44 in South 4.5 mph 5.8 mph 44% 0.01 in 319.66 W/m2
15:00 48.2 °F 26.8 °F 30.44 in ENE 2.5 mph 3.4 mph 43% 0.01 in 313.18 W/m2
15:05 48.4 °F 27 °F 30.44 in South 0.7 mph 2.2 mph 43% 0 in 287.98 W/m2
15:10 48.4 °F 27 °F 30.45 in SSE 3.8 mph 4.5 mph 43% 0 in 281.00 W/m2
15:15 48.7 °F 26.6 °F 30.44 in South 4 mph 5.8 mph 42% 0 in 249.44 W/m2
15:20 48.9 °F 27.5 °F 30.45 in SSW 2.5 mph 3.4 mph 43% 0 in 234.64 W/m2
15:25 48.7 °F 26.6 °F 30.44 in SSW 2.9 mph 4.5 mph 42% 0 in 224.24 W/m2
15:30 48.4 °F 27 °F 30.45 in SSE 2.5 mph 4.5 mph 43% 0 in 210.78 W/m2
15:35 48.6 °F 26.6 °F 30.46 in WSW 3.4 mph 3.4 mph 42% 0 in 185.22 W/m2
15:40 48.7 °F 27.3 °F 30.46 in East 3.8 mph 5.8 mph 43% 0 in 181.67 W/m2
15:45 48.4 °F 27 °F 30.46 in NW 0.7 mph 2.2 mph 43% 0 in 158.67 W/m2
15:50 48.6 °F 27.1 °F 30.45 in NNW 1.1 mph 1.1 mph 43% 0 in 141.78 W/m2
15:55 48.7 °F 27.3 °F 30.46 in SSE 2 mph 3.4 mph 43% 0 in 129.68 W/m2
16:00 48.2 °F 27.9 °F 30.46 in SE 2.2 mph 3.4 mph 45% 0 in 122.34 W/m2
16:05 48 °F 27.7 °F 30.46 in South 1.8 mph 3.4 mph 45% 0 in 84.04 W/m2
16:10 47.7 °F 26.8 °F 30.47 in SSW 1.8 mph 2.2 mph 44% 0 in 64.96 W/m2
16:15 47.7 °F 26.8 °F 30.46 in South 3.6 mph 4.5 mph 44% 0 in 59.82 W/m2
16:20 47.5 °F 27.1 °F 30.46 in SSE 2.9 mph 3.4 mph 45% 0 in 55.41 W/m2
16:25 47.3 °F 27 °F 30.46 in SSE 2.7 mph 3.4 mph 45% 0 in 51.50 W/m2
16:30 47.7 °F 27.9 °F 30.46 in SSE 1.8 mph 3.4 mph 46% 0 in 45.02 W/m2
16:35 46.9 °F 27.3 °F 30.48 in NNW 0.2 mph 1.1 mph 46% 0 in 38.53 W/m2
16:40 46.6 °F 27 °F 30.47 in SSE 2.2 mph 3.4 mph 46% 0 in 34.62 W/m2
16:45 46.4 °F 26.8 °F 30.47 in SSE 3.4 mph 4.5 mph 46% 0 in 32.05 W/m2
16:50 46.4 °F 27.9 °F 30.47 in West 0.7 mph 1.1 mph 48% 0 in 29.48 W/m2
16:55 46.2 °F 27.1 °F 30.48 in SSW 1.1 mph 1.1 mph 47% 0 in 24.71 W/m2
17:00 45.9 °F 27.3 °F 30.47 in SSW 1.1 mph 1.1 mph 48% 0 in 21.65 W/m2
17:05 45.9 °F 27.3 °F 30.48 in SE 1.3 mph 2.2 mph 48% 0 in 18.60 W/m2
17:10 45.9 °F 27.3 °F 30.48 in Calm     48% 0 in 14.68 W/m2
17:15 45.1 °F 27.7 °F 30.48 in Calm     50% 0 in 11.62 W/m2
17:20 44.4 °F 26.4 °F 30.48 in South 1.8 mph 2.2 mph 49% 0 in 8.19 W/m2
17:26 44.6 °F 23 °F 30.48 in South 2.9 mph 3.4 mph 42% 0 in 3.79 W/m2
17:30 45.3 °F 25.2 °F 30.48 in SSE 1.3 mph 2.2 mph 45% 0 in 2.08 W/m2
17:35 45.1 °F 22.8 °F 30.48 in South 1.8 mph 2.2 mph 41% 0 in 0.85 W/m2
17:40 45.1 °F 19.8 °F 30.48 in SSE 3.4 mph 4.5 mph 36% 0 in 0.00 W/m2
17:45 44.4 °F 20.5 °F 30.48 in SSW 2.5 mph 3.4 mph 38% 0 in 0.00 W/m2
17:50 44.2 °F 19.6 °F 30.48 in SW 0.9 mph 1.1 mph 37% 0 in 0.00 W/m2
17:55 44.1 °F 19.4 °F 30.49 in WSW 0.2 mph 1.1 mph 37% 0 in 0.00 W/m2
18:00 44.1 °F 18.9 °F 30.48 in South 3.1 mph 3.4 mph 36% 0 in 0.00 W/m2
18:05 43.9 °F 18.7 °F 30.49 in South 2.2 mph 2.2 mph 36% 0 in 0.00 W/m2
18:12 43.7 °F 17.8 °F 30.49 in SSW 3.6 mph 4.5 mph 35% 0 in 0.00 W/m2
18:16 43.5 °F 18.3 °F 30.48 in SSE 2.2 mph 2.2 mph 36% 0 in 0.00 W/m2
18:21 43.3 °F 18.1 °F 30.49 in SSW 4.3 mph 5.8 mph 36% 0 in 0.00 W/m2
18:26 43.2 °F 18.7 °F 30.49 in South 2.2 mph 3.4 mph 37% 0 in 0.00 W/m2
18:33 42.8 °F 19.6 °F 30.50 in SSW 1.1 mph 1.1 mph 39% 0 in 0.00 W/m2
18:35 42.4 °F 18.7 °F 30.49 in SW 2.5 mph 3.4 mph 38% 0 in 0.00 W/m2
18:41 42.4 °F 18.7 °F 30.49 in SSW 4.3 mph 6.9 mph 38% 0 in 0.00 W/m2
18:46 42.1 °F 18.9 °F 30.50 in SSE 1.1 mph 1.1 mph 39% 0 in 0.00 W/m2
18:50 42.3 °F 19 °F 30.49 in South 1.8 mph 2.2 mph 39% 0 in 0.00 W/m2
18:55 42.1 °F 18.9 °F 30.50 in SSW 2.5 mph 3.4 mph 39% 0 in 0.00 W/m2
19:00 41.7 °F 19.2 °F 30.49 in South 3.1 mph 3.4 mph 40% 0 in 0.00 W/m2
19:05 41.5 °F 19 °F 30.49 in South 1.8 mph 2.2 mph 40% 0 in 0.00 W/m2
19:10 41.5 °F 18.5 °F 30.49 in SSW 1.8 mph 2.2 mph 39% 0 in 0.00 W/m2
19:15 41.7 °F 18 °F 30.50 in SSW 2.7 mph 3.4 mph 38% 0 in 0.00 W/m2
19:20 41.9 °F 18.1 °F 30.50 in SSE 2.5 mph 3.4 mph 38% 0 in 0.00 W/m2
19:26 41.7 °F 18.5 °F 30.50 in WSW 1.1 mph 1.1 mph 39% 0 in 0.00 W/m2
19:30 41.4 °F 18.9 °F 30.50 in Calm     40% 0 in 0.00 W/m2
19:35 41 °F 19 °F 30.49 in Calm     41% 0 in 0.00 W/m2
19:40 40.3 °F 19 °F 30.50 in Calm     42% 0 in 0.00 W/m2
19:45 39.6 °F 19.4 °F 30.50 in Calm     44% 0 in 0.00 W/m2
19:50 38.8 °F 20.8 °F 30.50 in Calm     48% 0 in 0.00 W/m2
19:55 38.8 °F 19.8 °F 30.50 in NW 0.7 mph 1.1 mph 46% 0 in 0.00 W/m2
20:00 38.5 °F 20.5 °F 30.51 in Calm     48% 0 in 0.00 W/m2
20:05 38.1 °F 19.2 °F 30.50 in Calm     46% 0 in 0.00 W/m2
20:10 37.9 °F 19.4 °F 30.51 in WNW 1.1 mph 2.2 mph 47% 0 in 0.00 W/m2
20:15 37.8 °F 20.3 °F 30.51 in Calm     49% 0 in 0.00 W/m2
20:20 37.2 °F 20.8 °F 30.51 in Calm     51% 0 in 0.00 W/m2
20:25 37.2 °F 19.8 °F 30.51 in NW 1.1 mph 1.1 mph 49% 0 in 0.00 W/m2
20:30 36.5 °F 19.6 °F 30.51 in Calm     50% 0 in 0.00 W/m2
20:35 36.1 °F 20.7 °F 30.51 in Calm     53% 0 in 0.00 W/m2
20:40 35.8 °F 20.7 °F 30.51 in NW 0.2 mph 1.1 mph 54% 0 in 0.00 W/m2
20:45 36 °F 20.8 °F 30.51 in Calm     54% 0 in 0.00 W/m2
20:50 35.1 °F 21 °F 30.51 in Calm     56% 0 in 0.00 W/m2
20:55 34.7 °F 21.7 °F 30.51 in Calm     59% 0 in 0.00 W/m2
21:00 34.5 °F 20.8 °F 30.51 in Calm     57% 0 in 0.00 W/m2
21:05 34.2 °F 21.7 °F 30.51 in Calm     60% 0 in 0.00 W/m2
21:10 34 °F 22.3 °F 30.51 in Calm     62% 0 in 0.00 W/m2
21:15 34.2 °F 21.4 °F 30.51 in NW 0.2 mph 1.1 mph 59% 0 in 0.00 W/m2
21:20 34.2 °F 21.7 °F 30.51 in Calm     60% 0 in 0.00 W/m2
21:25 35.6 °F 20.7 °F 30.52 in NW 0.2 mph 1.1 mph 54% 0 in 0.00 W/m2
21:30 36.9 °F 20.5 °F 30.52 in NW 0.9 mph 1.1 mph 51% 0 in 0.00 W/m2
21:35 37 °F 21 °F 30.51 in NW 0.7 mph 1.1 mph 52% 0 in 0.00 W/m2
21:40 37.9 °F 19.4 °F 30.52 in WNW 2.2 mph 3.4 mph 47% 0 in 0.00 W/m2
21:45 38.5 °F 19.4 °F 30.52 in WNW 1.3 mph 2.2 mph 46% 0 in 0.00 W/m2
21:50 38.8 °F 18.9 °F 30.52 in WNW 2.5 mph 3.4 mph 44% 0 in 0.00 W/m2
21:55 39.2 °F 19.6 °F 30.53 in WNW 2 mph 2.2 mph 45% 0 in 0.00 W/m2
22:00 39.6 °F 19.4 °F 30.51 in WNW 3.4 mph 3.4 mph 44% 0 in 0.00 W/m2
22:05 39.7 °F 19 °F 30.52 in WNW 3.4 mph 4.5 mph 43% 0 in 0.00 W/m2
22:10 40.1 °F 19.4 °F 30.52 in WNW 2.5 mph 3.4 mph 43% 0 in 0.00 W/m2
22:15 40.3 °F 19.6 °F 30.53 in WNW 2.5 mph 3.4 mph 43% 0 in 0.00 W/m2
22:20 40.3 °F 20.1 °F 30.52 in WNW 2.9 mph 3.4 mph 44% 0 in 0.00 W/m2
22:25 40.3 °F 20.7 °F 30.52 in WNW 2.5 mph 3.4 mph 45% 0 in 0.00 W/m2
22:30 40.3 °F 21.2 °F 30.52 in WNW 2.5 mph 3.4 mph 46% 0 in 0.00 W/m2
22:35 40.3 °F 21.6 °F 30.53 in WNW 2.5 mph 3.4 mph 47% 0 in 0.00 W/m2
22:40 40.1 °F 21.9 °F 30.52 in WNW 2.9 mph 4.5 mph 48% 0 in 0.00 W/m2
22:45 39.9 °F 21.7 °F 30.52 in WNW 1.3 mph 2.2 mph 48% 0 in 0.00 W/m2
22:50 39.7 °F 22.6 °F 30.52 in WNW 2.7 mph 3.4 mph 50% 0 in 0.00 W/m2
22:55 39.6 °F 23 °F 30.53 in WNW 2 mph 2.2 mph 51% 0 in 0.00 W/m2
23:02 39.4 °F 23.7 °F 30.52 in WNW 1.6 mph 2.2 mph 53% 0 in 0.00 W/m2
23:05 39.6 °F 23.9 °F 30.52 in WNW 1.3 mph 2.2 mph 53% 0 in 0.00 W/m2
23:11 39.6 °F 24.8 °F 30.53 in West 2.5 mph 3.4 mph 55% 0 in 0.00 W/m2
23:16 39.6 °F 25.2 °F 30.53 in WNW 1.8 mph 2.2 mph 56% 0 in 0.00 W/m2
23:20 39.4 °F 25 °F 30.53 in WNW 1.8 mph 2.2 mph 56% 0 in 0.00 W/m2
Soleil Laural Canyon
Compliments of Weather Underground - 4 mb